Time;durP1;ratioP1;P1;durP2;ratioP2;P2;SDS_P1;SDS_P2;PMS_P1;PMS_P2;Temp;Humidity;BMP_temperature;BMP_pressure;BME280_temperature;BME280_humidity;BME280_pressure;Samples;Min_cycle;Max_cycle;Signal;HPM_P1;HPM_P2
2021/08/04 00:01:42;;;;;;;14.43;6.82;;;;;;;17.08;69.45;101362.13;4809923;29;20149;-62
2021/08/04 00:04:10;;;;;;;12.93;7.33;;;;;;;17.13;69.12;101353.66;4817252;29;20198;-61
2021/08/04 00:06:38;;;;;;;10.82;6.63;;;;;;;17.07;68.66;101357.84;4810273;29;20318;-62
2021/08/04 00:09:05;;;;;;;11.25;6.78;;;;;;;16.73;70.04;101363.47;4817505;29;20149;-60
2021/08/04 00:11:32;;;;;;;14.05;6.85;;;;;;;16.55;70.64;101361.91;4808465;29;20165;-62
2021/08/04 00:14:00;;;;;;;14.30;6.93;;;;;;;16.36;71.88;101362.31;4832683;29;20060;-62
2021/08/04 00:16:26;;;;;;;11.00;7.22;;;;;;;16.28;72.47;101365.81;4828501;29;20066;-62
2021/08/04 00:18:53;;;;;;;15.00;6.95;;;;;;;16.36;72.63;101363.13;4834591;29;20058;-61
2021/08/04 00:21:19;;;;;;;14.15;6.78;;;;;;;16.25;72.80;101368.81;4832830;29;20093;-61
2021/08/04 00:23:46;;;;;;;11.95;6.50;;;;;;;16.24;72.87;101366.34;4826198;29;20152;-61
2021/08/04 00:26:12;;;;;;;10.82;6.97;;;;;;;16.29;72.63;101363.97;4829551;29;20160;-61
2021/08/04 00:28:39;;;;;;;14.30;7.18;;;;;;;16.27;71.97;101358.88;4829053;29;20182;-61
2021/08/04 00:31:05;;;;;;;10.98;6.97;;;;;;;16.31;71.96;101362.00;4834879;29;20093;-61
2021/08/04 00:33:32;;;;;;;13.23;7.38;;;;;;;16.31;72.10;101360.19;4827787;29;20482;-62
2021/08/04 00:35:58;;;;;;;13.35;6.85;;;;;;;16.24;72.62;101363.69;4835582;29;20133;-62
2021/08/04 00:38:25;;;;;;;11.60;6.45;;;;;;;16.31;71.53;101356.72;4824418;29;20141;-62
2021/08/04 00:40:51;;;;;;;12.27;7.10;;;;;;;16.06;73.12;101361.25;4829152;29;20161;-62
2021/08/04 00:43:18;;;;;;;12.40;7.22;;;;;;;16.01;73.13;101367.88;4834507;29;20054;-62
2021/08/04 00:45:45;;;;;;;14.35;7.53;;;;;;;16.00;73.33;101362.75;4843141;29;20184;-62
2021/08/04 00:48:11;;;;;;;14.38;6.97;;;;;;;16.02;72.47;101364.22;4849877;29;20060;-62
2021/08/04 00:50:38;;;;;;;11.93;6.63;;;;;;;16.03;72.50;101365.03;4829202;29;20160;-62
2021/08/04 00:53:17;;;;;;;12.65;7.30;;;;;;;15.97;72.77;101353.31;4828710;29;20169;-62
2021/08/04 00:55:44;;;;;;;13.27;7.38;;;;;;;15.95;72.87;101350.00;4805520;29;20562;-61
2021/08/04 00:58:11;;;;;;;12.32;7.43;;;;;;;15.92;72.56;101360.94;4816574;29;20559;-62
2021/08/04 01:00:44;;;;;;;12.77;7.38;;;;;;;15.89;72.53;101355.97;4809181;29;20377;-62
2021/08/04 01:03:16;;;;;;;13.00;7.40;;;;;;;15.82;72.96;101369.06;4816116;29;20082;-61
2021/08/04 01:05:53;;;;;;;13.25;7.25;;;;;;;15.72;73.22;101360.47;4814770;29;20124;-62
2021/08/04 01:08:29;;;;;;;14.30;7.53;;;;;;;15.65;73.50;101359.47;4808600;29;20499;-62
2021/08/04 01:10:57;;;;;;;13.65;7.35;;;;;;;15.65;73.49;101358.66;4815745;29;20062;-61
2021/08/04 01:13:27;;;;;;;14.80;7.93;;;;;;;15.58;73.71;101361.97;4826876;29;20202;-62
2021/08/04 01:16:05;;;;;;;20.60;7.50;;;;;;;15.63;73.96;101362.28;4834548;29;20173;-61
2021/08/04 01:19:06;;;;;;;13.38;7.35;;;;;;;15.70;73.44;101358.94;4827111;29;20064;-62
2021/08/04 01:21:41;;;;;;;14.13;7.40;;;;;;;15.75;73.14;101356.69;4827070;29;20065;-61
2021/08/04 01:24:31;;;;;;;17.23;8.43;;;;;;;15.80;73.35;101362.31;4824325;29;20497;-62
2021/08/04 01:26:59;;;;;;;14.02;7.80;;;;;;;15.80;72.75;101359.66;4833952;29;20100;-62
2021/08/04 01:29:26;;;;;;;12.85;8.02;;;;;;;15.76;73.30;101359.16;4828131;29;20570;-62
2021/08/04 01:31:57;;;;;;;21.85;8.52;;;;;;;15.76;73.17;101358.34;4832717;29;20136;-62
2021/08/04 01:34:24;;;;;;;13.98;8.13;;;;;;;15.73;72.50;101359.47;4823665;29;20161;-62
2021/08/04 01:36:52;;;;;;;13.80;7.73;;;;;;;15.72;72.90;101354.31;4829737;29;20906;-61
2021/08/04 01:39:20;;;;;;;16.88;7.95;;;;;;;15.66;73.03;101353.19;4827505;29;20152;-61
2021/08/04 01:41:49;;;;;;;12.13;7.82;;;;;;;15.62;73.32;101352.69;4833009;29;20058;-62
2021/08/04 01:44:16;;;;;;;;;;;;;;;15.49;73.70;101354.19;4837418;29;20132;-61
2021/08/04 01:46:42;;;;;;;13.45;8.10;;;;;;;15.14;75.35;101348.22;4845480;29;20359;-62
2021/08/04 01:49:10;;;;;;;10.82;6.97;;;;;;;15.26;75.54;101348.72;4836902;29;20588;-61
2021/08/04 01:51:38;;;;;;;12.43;7.40;;;;;;;15.43;74.49;101353.84;4822623;29;20653;-62
2021/08/04 01:54:04;;;;;;;11.63;7.07;;;;;;;15.26;74.33;101354.84;4823831;29;20140;-64
2021/08/04 01:56:31;;;;;;;14.20;7.47;;;;;;;14.97;76.74;101348.19;4809238;29;20441;-62
2021/08/04 01:58:57;;;;;;;14.60;7.60;;;;;;;14.83;76.72;101354.09;4815576;29;20058;-63
2021/08/04 02:01:25;;;;;;;17.52;8.63;;;;;;;14.80;77.36;101359.72;4813391;29;20062;-62
2021/08/04 02:03:53;;;;;;;;;;;;;;;14.74;77.45;101357.69;4806819;29;20736;-61
2021/08/04 02:06:27;;;;;;;12.45;7.15;;;;;;;14.67;78.00;101349.59;4813297;29;20011;-62
2021/08/04 02:09:19;;;;;;;13.68;7.20;;;;;;;14.65;77.72;101350.75;4825887;29;20053;-61
2021/08/04 02:11:59;;;;;;;16.05;7.85;;;;;;;14.54;78.02;101352.66;4847201;29;20829;-61
2021/08/04 02:14:37;;;;;;;14.40;7.93;;;;;;;14.48;78.44;101350.66;4844095;29;20100;-64
2021/08/04 02:17:21;;;;;;;15.25;8.55;;;;;;;14.47;78.58;101356.94;4838179;29;20053;-61
2021/08/04 02:19:55;;;;;;;14.23;7.65;;;;;;;14.45;78.39;101353.63;4821874;29;20058;-63
2021/08/04 02:22:29;;;;;;;16.58;8.73;;;;;;;14.43;79.66;101350.31;4830672;29;20061;-61
2021/08/04 02:25:05;;;;;;;15.88;8.45;;;;;;;14.39;80.02;101347.16;4830884;29;20575;-62
2021/08/04 02:27:36;;;;;;;15.70;8.15;;;;;;;14.38;80.67;101345.50;4851737;29;20466;-64
2021/08/04 02:30:05;;;;;;;15.32;8.15;;;;;;;14.38;80.90;101344.69;4841485;29;20148;-61
2021/08/04 02:32:32;;;;;;;13.30;7.68;;;;;;;14.43;80.58;101352.97;4827233;29;20100;-64
2021/08/04 02:34:58;;;;;;;17.45;7.57;;;;;;;14.60;79.12;101340.66;4826218;29;20149;-62
2021/08/04 02:37:24;;;;;;;15.43;8.10;;;;;;;14.54;79.28;101350.00;4832540;29;20125;-63
2021/08/04 02:39:51;;;;;;;18.73;8.45;;;;;;;14.50;79.53;101350.50;4833092;29;20093;-64
2021/08/04 02:42:19;;;;;;;14.68;8.32;;;;;;;14.45;79.33;101345.72;4832996;29;20072;-62
2021/08/04 02:44:46;;;;;;;14.93;8.40;;;;;;;14.40;79.11;101342.72;4848334;29;20065;-63
2021/08/04 02:47:12;;;;;;;14.43;7.57;;;;;;;14.42;78.57;101344.19;4840064;29;20152;-64
2021/08/04 02:49:39;;;;;;;17.33;8.02;;;;;;;14.36;78.34;101336.91;4835160;29;20173;-63
2021/08/04 02:52:07;;;;;;;11.68;7.07;;;;;;;14.31;78.42;101341.84;4825856;29;20093;-62
2021/08/04 02:54:33;;;;;;;13.23;7.63;;;;;;;14.25;78.81;101337.22;4818698;29;20170;-65
2021/08/04 02:56:59;;;;;;;16.80;8.48;;;;;;;14.20;78.83;101334.22;4807866;29;20058;-64
2021/08/04 02:59:26;;;;;;;16.15;7.90;;;;;;;14.16;79.28;101333.69;4808434;29;20181;-62
2021/08/04 03:01:53;;;;;;;15.95;7.75;;;;;;;14.10;79.73;101331.69;4814175;29;20114;-62
2021/08/04 03:04:20;;;;;;;16.02;7.32;;;;;;;14.10;79.73;101334.31;4810515;29;20058;-62
2021/08/04 03:06:46;;;;;;;12.90;7.63;;;;;;;14.10;79.96;101330.88;4818673;29;20108;-62
2021/08/04 03:09:13;;;;;;;11.55;7.05;;;;;;;14.03;79.53;101331.50;4811768;29;20062;-63
2021/08/04 03:11:39;;;;;;;13.60;7.75;;;;;;;13.98;79.95;101336.41;4821462;29;20153;-62
2021/08/04 03:14:06;;;;;;;12.25;7.03;;;;;;;13.96;80.94;101337.56;4829988;29;20104;-62
2021/08/04 03:16:33;;;;;;;13.45;7.88;;;;;;;13.94;81.99;101334.25;4844039;29;20059;-62
2021/08/04 03:18:59;;;;;;;13.05;7.88;;;;;;;13.96;81.85;101332.28;4832929;29;20061;-61
2021/08/04 03:21:26;;;;;;;13.82;7.05;;;;;;;13.91;80.71;101337.19;4832026;29;20054;-62
2021/08/04 03:23:52;;;;;;;14.32;7.22;;;;;;;13.95;80.23;101333.25;4831033;29;20058;-62
2021/08/04 03:26:19;;;;;;;13.00;7.80;;;;;;;13.97;81.20;101336.56;4829421;29;20152;-62
2021/08/04 03:28:45;;;;;;;16.38;8.27;;;;;;;13.97;80.56;101336.56;4836535;29;20065;-62
2021/08/04 03:31:12;;;;;;;13.65;7.45;;;;;;;13.95;81.29;101331.44;4828735;29;20168;-62
2021/08/04 03:33:38;;;;;;;15.10;7.82;;;;;;;13.95;80.96;101334.06;4834023;29;20153;-62
2021/08/04 03:36:05;;;;;;;16.60;7.55;;;;;;;14.00;80.24;101344.16;4826862;29;20089;-62
2021/08/04 03:38:31;;;;;;;15.80;7.30;;;;;;;13.97;80.67;101337.38;4833548;29;20101;-62
2021/08/04 03:40:58;;;;;;;12.43;7.13;;;;;;;13.99;80.71;101339.88;4835152;29;20149;-62
2021/08/04 03:43:25;;;;;;;14.15;7.40;;;;;;;14.21;79.60;101336.69;4831173;29;20618;-62
2021/08/04 03:45:51;;;;;;;12.10;6.95;;;;;;;14.29;78.77;101335.06;4836325;29;20053;-62
2021/08/04 03:48:18;;;;;;;14.85;8.05;;;;;;;14.59;77.46;101339.03;4830070;29;20141;-62
2021/08/04 03:50:44;;;;;;;14.98;7.80;;;;;;;14.61;77.13;101344.97;4828409;29;20149;-62
2021/08/04 03:53:11;;;;;;;17.90;7.38;;;;;;;14.70;76.79;101341.38;4823609;29;20137;-62
2021/08/04 03:55:37;;;;;;;13.10;7.47;;;;;;;14.69;75.98;101345.00;4816713;29;20058;-62
2021/08/04 03:58:04;;;;;;;12.40;6.90;;;;;;;14.68;75.34;101339.88;4811307;29;20103;-60
2021/08/04 04:00:30;;;;;;;10.45;6.43;;;;;;;14.63;75.97;101340.34;4816908;29;20555;-62
2021/08/04 04:02:57;;;;;;;13.68;7.80;;;;;;;14.69;76.09;101344.16;4813781;29;20058;-62
2021/08/04 04:05:24;;;;;;;15.98;6.70;;;;;;;14.77;75.51;101345.00;4805901;29;20061;-62
2021/08/04 04:07:50;;;;;;;9.98;6.47;;;;;;;14.87;75.05;101351.97;4816741;29;20073;-62
2021/08/04 04:10:17;;;;;;;13.48;7.25;;;;;;;14.83;75.01;101354.09;4810842;29;20145;-62
2021/08/04 04:12:43;;;;;;;13.50;6.90;;;;;;;15.08;74.68;101346.25;4828945;29;20162;-62
2021/08/04 04:15:11;;;;;;;11.32;6.88;;;;;;;14.68;75.51;101353.06;4828884;29;20061;-61
2021/08/04 04:17:37;;;;;;;11.77;7.15;;;;;;;14.70;75.53;101362.50;4838996;29;20545;-62
2021/08/04 04:20:04;;;;;;;11.95;6.78;;;;;;;14.91;74.55;101359.41;4825956;29;20050;-63
2021/08/04 04:22:31;;;;;;;11.60;7.53;;;;;;;14.59;76.09;101358.31;4832718;29;20156;-62
2021/08/04 04:24:57;;;;;;;16.80;7.70;;;;;;;15.15;74.10;101360.44;4835444;29;20483;-61
2021/08/04 04:27:24;;;;;;;14.93;7.72;;;;;;;14.99;72.45;101361.22;4828028;29;20538;-61
2021/08/04 04:29:50;;;;;;;11.85;7.22;;;;;;;14.56;75.64;101368.34;4835402;29;20123;-62
2021/08/04 04:32:17;;;;;;;13.32;8.00;;;;;;;14.34;78.05;101365.28;4823948;29;20072;-62
2021/08/04 04:34:43;;;;;;;13.38;7.65;;;;;;;14.14;78.61;101372.59;4831398;29;20467;-62
2021/08/04 04:37:10;;;;;;;15.88;7.93;;;;;;;14.01;80.30;101373.03;4829251;29;20484;-62
2021/08/04 04:39:36;;;;;;;14.18;7.75;;;;;;;13.99;81.19;101372.34;4835059;29;20089;-62
2021/08/04 04:42:03;;;;;;;11.98;7.25;;;;;;;13.99;81.12;101377.59;4834819;29;20149;-62
2021/08/04 04:44:29;;;;;;;13.18;7.07;;;;;;;14.01;82.10;101374.81;4828087;29;20054;-62
2021/08/04 04:46:56;;;;;;;15.05;7.32;;;;;;;14.04;82.29;101375.34;4829013;29;20153;-62
2021/08/04 04:49:22;;;;;;;13.02;7.88;;;;;;;14.13;81.44;101373.59;4842087;29;20109;-62
2021/08/04 04:51:49;;;;;;;15.27;7.43;;;;;;;14.39;79.98;101376.19;4852577;29;20148;-62
2021/08/04 04:54:15;;;;;;;13.10;7.10;;;;;;;14.81;77.42;101385.94;4822421;29;20558;-62
2021/08/04 04:56:41;;;;;;;14.70;7.70;;;;;;;14.84;76.94;101382.19;4814482;29;20157;-62
2021/08/04 04:59:08;;;;;;;13.68;7.50;;;;;;;14.99;75.44;101370.00;4808355;29;20178;-62
2021/08/04 05:01:35;;;;;;;12.52;6.85;;;;;;;15.05;76.17;101379.06;4808436;29;20138;-62
2021/08/04 05:04:01;;;;;;;13.27;7.00;;;;;;;15.18;75.64;101376.78;4814735;29;20069;-62
2021/08/04 05:06:30;;;;;;;13.43;6.82;;;;;;;15.18;74.44;101379.44;4809967;29;20674;-62
2021/08/04 05:08:56;;;;;;;13.07;7.15;;;;;;;15.31;73.80;101378.13;4816530;29;20109;-62
2021/08/04 05:11:23;;;;;;;13.23;7.80;;;;;;;15.79;72.84;101379.16;4809787;29;20058;-61
2021/08/04 05:13:49;;;;;;;14.55;7.68;;;;;;;16.08;71.23;101380.44;4830252;29;20789;-62
2021/08/04 05:16:16;;;;;;;12.55;7.93;;;;;;;15.41;73.32;101382.28;4825028;29;20061;-62
2021/08/04 05:18:42;;;;;;;13.73;7.25;;;;;;;15.18;75.52;101382.06;4833382;29;20062;-62
2021/08/04 05:21:09;;;;;;;12.07;7.25;;;;;;;15.18;75.64;101383.91;4831572;29;20220;-62
2021/08/04 05:23:35;;;;;;;15.80;7.93;;;;;;;15.58;74.19;101385.75;4827908;29;20442;-62
2021/08/04 05:26:02;;;;;;;15.55;7.72;;;;;;;15.97;72.75;101389.53;4833463;29;20053;-62
2021/08/04 05:28:28;;;;;;;16.52;7.97;;;;;;;15.76;72.87;101390.91;4821229;29;20132;-62
2021/08/04 05:30:55;;;;;;;17.98;8.52;;;;;;;15.80;74.61;101388.75;4832627;29;20140;-62
2021/08/04 05:33:21;;;;;;;12.68;7.80;;;;;;;15.91;74.00;101395.50;4826678;29;20061;-62
2021/08/04 05:35:48;;;;;;;19.02;8.55;;;;;;;16.18;72.75;101400.41;4833309;29;20184;-62
2021/08/04 05:38:15;;;;;;;14.85;8.85;;;;;;;16.36;72.52;101400.19;4826353;29;20060;-62
2021/08/04 05:40:41;;;;;;;18.88;10.13;;;;;;;16.07;73.98;101405.22;4827782;29;20090;-62
2021/08/04 05:43:08;;;;;;;17.05;9.57;;;;;;;16.04;74.75;101406.41;4831092;29;20498;-62
2021/08/04 05:45:37;;;;;;;20.60;10.10;;;;;;;16.31;73.35;101404.38;4827733;29;20057;-62
2021/08/04 05:48:05;;;;;;;16.25;8.48;;;;;;;16.47;72.97;101403.50;4837619;29;20143;-62
2021/08/04 05:50:32;;;;;;;15.35;9.43;;;;;;;16.30;74.23;101408.00;4845574;29;20053;-62
2021/08/04 05:52:59;;;;;;;18.90;9.95;;;;;;;16.43;74.18;101394.25;4847780;29;20450;-62
2021/08/04 05:55:25;;;;;;;19.08;9.73;;;;;;;16.64;72.88;101399.78;4826420;29;20209;-62
2021/08/04 05:57:52;;;;;;;17.50;10.75;;;;;;;16.74;73.15;101402.19;4832853;29;20601;-63
2021/08/04 06:00:18;;;;;;;16.98;9.98;;;;;;;16.88;73.96;101401.50;4828555;29;20144;-62
2021/08/04 06:02:44;;;;;;;20.33;11.18;;;;;;;17.13;73.40;101393.41;4840534;29;20089;-62
2021/08/04 06:05:12;;;;;;;20.27;11.35;;;;;;;17.17;73.14;101400.84;4830602;29;20533;-62
2021/08/04 06:07:39;;;;;;;18.30;10.48;;;;;;;17.16;73.31;101401.03;4825322;29;20119;-62
2021/08/04 06:10:05;;;;;;;23.45;11.30;;;;;;;17.20;73.54;101403.13;4845973;29;21363;-62
2021/08/04 06:12:32;;;;;;;19.33;11.38;;;;;;;17.17;73.93;101400.84;4823592;29;20133;-63
2021/08/04 06:14:58;;;;;;;24.58;11.73;;;;;;;17.44;72.84;101405.78;4837506;29;20117;-62
2021/08/04 06:17:25;;;;;;;23.83;11.40;;;;;;;17.68;72.09;101407.41;4827570;29;20061;-62
2021/08/04 06:19:52;;;;;;;18.00;10.85;;;;;;;17.75;71.60;101405.72;4829625;29;20728;-62
2021/08/04 06:22:18;;;;;;;23.13;12.57;;;;;;;17.89;72.22;101406.78;4829378;29;20057;-62
2021/08/04 06:24:45;;;;;;;27.80;12.27;;;;;;;18.02;71.05;101400.84;4850960;29;20159;-62
2021/08/04 06:27:12;;;;;;;24.10;12.77;;;;;;;18.05;71.66;101403.94;4851389;29;20160;-62
2021/08/04 06:29:38;;;;;;;17.83;10.38;;;;;;;18.37;69.46;101410.75;4841415;29;20185;-61
2021/08/04 06:32:05;;;;;;;24.17;12.80;;;;;;;18.55;69.43;101409.56;4828224;29;20611;-62
2021/08/04 06:34:32;;;;;;;24.30;13.13;;;;;;;17.96;71.72;101408.53;4820768;29;20595;-62
2021/08/04 06:36:58;;;;;;;25.83;12.85;;;;;;;17.39;74.71;101412.47;4833238;29;20426;-62
2021/08/04 06:39:25;;;;;;;24.33;12.70;;;;;;;17.07;76.64;101402.91;4828817;29;20054;-63
2021/08/04 06:42:10;;;;;;;31.50;14.00;;;;;;;16.94;78.02;101406.13;4836310;29;20058;-63
2021/08/04 06:44:36;;;;;;;29.20;13.27;;;;;;;16.98;78.50;101407.41;4825850;29;20084;-62
2021/08/04 06:47:03;;;;;;;22.98;12.57;;;;;;;16.97;78.49;101396.97;4830862;29;20136;-62
2021/08/04 06:49:30;;;;;;;24.15;14.13;;;;;;;16.99;78.89;101406.44;4850862;29;20057;-63
2021/08/04 06:51:56;;;;;;;29.20;14.07;;;;;;;16.98;78.20;101406.59;4847786;29;20108;-63
2021/08/04 06:54:24;;;;;;;28.90;13.60;;;;;;;16.97;78.50;101403.13;4845829;29;20379;-62
2021/08/04 06:56:52;;;;;;;31.73;13.85;;;;;;;17.07;78.31;101404.72;4841378;29;20060;-62
2021/08/04 06:59:18;;;;;;;29.50;14.27;;;;;;;17.09;78.69;101406.22;4829344;29;20161;-62
2021/08/04 07:01:45;;;;;;;36.10;13.55;;;;;;;17.13;78.08;101404.00;4816330;29;20714;-63
2021/08/04 07:04:12;;;;;;;39.47;15.38;;;;;;;17.23;77.84;101406.44;4818204;29;20187;-62
2021/08/04 07:06:50;;;;;;;32.67;14.77;;;;;;;17.28;77.97;101406.75;4835580;29;20085;-62
2021/08/04 07:09:17;;;;;;;29.83;14.43;;;;;;;17.52;77.44;101403.06;4833067;29;20096;-62
2021/08/04 07:11:43;;;;;;;29.27;14.27;;;;;;;17.45;77.04;101408.28;4834813;29;20089;-62
2021/08/04 07:14:11;;;;;;;29.92;15.57;;;;;;;17.43;78.13;101407.63;4827134;29;20172;-63
2021/08/04 07:16:38;;;;;;;34.78;15.05;;;;;;;17.79;76.68;101409.66;4840913;29;20269;-62
2021/08/04 07:19:04;;;;;;;23.73;11.77;;;;;;;17.98;75.06;101413.66;4848777;29;20857;-62
2021/08/04 07:21:31;;;;;;;35.72;16.73;;;;;;;17.96;75.09;101408.53;4852633;29;20739;-62
2021/08/04 07:23:57;;;;;;;28.10;13.10;;;;;;;18.34;73.44;101411.09;4848906;29;20204;-62
2021/08/04 07:26:23;;;;;;;28.73;15.05;;;;;;;18.90;72.17;101407.97;4851841;29;20140;-62
2021/08/04 07:28:50;;;;;;;33.22;15.23;;;;;;;19.24;71.91;101405.66;4850179;29;20152;-62
2021/08/04 07:31:16;;;;;;;33.08;15.32;;;;;;;19.28;71.98;101412.25;4837198;29;20148;-62
2021/08/04 07:33:43;;;;;;;33.83;16.05;;;;;;;19.60;70.46;101402.94;4836130;29;20064;-62
2021/08/04 07:36:12;;;;;;;34.97;16.00;;;;;;;19.86;68.79;101410.34;4834647;29;20079;-62
2021/08/04 07:38:38;;;;;;;33.35;16.73;;;;;;;20.17;65.88;101405.63;4852872;29;20157;-63
2021/08/04 07:41:06;;;;;;;28.52;15.20;;;;;;;20.44;65.14;101418.06;4845904;29;20088;-62
2021/08/04 07:43:32;;;;;;;35.90;16.52;;;;;;;20.62;64.17;101414.91;4851072;29;20161;-62
2021/08/04 07:45:59;;;;;;;27.30;12.38;;;;;;;19.84;66.74;101408.91;4848273;29;20673;-62
2021/08/04 07:48:28;;;;;;;32.20;14.88;;;;;;;19.42;68.85;101403.38;4853670;29;20057;-61
2021/08/04 07:50:55;;;;;;;40.20;18.15;;;;;;;19.42;70.22;101407.88;4853432;29;20053;-62
2021/08/04 07:53:22;;;;;;;38.00;16.15;;;;;;;19.75;68.95;101406.34;4835970;29;20058;-62
2021/08/04 07:55:49;;;;;;;41.38;19.80;;;;;;;20.11;67.29;101405.41;4811912;29;20157;-62
2021/08/04 07:58:15;;;;;;;32.55;16.25;;;;;;;20.44;65.50;101406.59;4811134;29;20101;-63
2021/08/04 08:00:42;;;;;;;34.25;15.65;;;;;;;20.49;65.80;101412.16;4816129;29;20141;-62
2021/08/04 08:03:08;;;;;;;31.17;14.38;;;;;;;20.39;65.01;101409.03;4810294;29;20176;-62
2021/08/04 08:05:35;;;;;;;39.40;17.00;;;;;;;20.08;66.69;101407.63;4816265;29;20062;-62
2021/08/04 08:08:05;;;;;;;42.67;17.10;;;;;;;20.28;66.88;101407.72;4807287;29;20800;-62
2021/08/04 08:10:32;;;;;;;38.78;17.05;;;;;;;19.99;67.94;101417.59;4812714;29;20175;-62
2021/08/04 08:12:59;;;;;;;38.92;18.90;;;;;;;20.15;67.36;101417.31;4831796;29;20531;-62
2021/08/04 08:15:26;;;;;;;40.78;18.08;;;;;;;19.70;69.29;101413.25;4829237;29;20062;-62
2021/08/04 08:17:53;;;;;;;37.58;17.65;;;;;;;19.51;68.86;101412.06;4844141;29;20101;-63
2021/08/04 08:20:20;;;;;;;38.63;16.63;;;;;;;19.64;69.22;101414.00;4827279;29;20091;-62
2021/08/04 08:22:48;;;;;;;37.03;15.55;;;;;;;19.94;68.15;101410.19;4831393;29;20578;-63
2021/08/04 08:25:15;;;;;;;38.35;16.77;;;;;;;20.40;66.70;101406.16;4825263;29;20172;-63
2021/08/04 08:27:42;;;;;;;33.03;14.90;;;;;;;20.59;66.34;101403.78;4834708;29;20173;-62
2021/08/04 08:30:10;;;;;;;28.10;15.48;;;;;;;20.63;66.04;101405.88;4829295;29;20149;-63
2021/08/04 08:32:36;;;;;;;35.53;16.30;;;;;;;20.86;65.10;101397.56;4834130;29;20093;-63
2021/08/04 08:35:04;;;;;;;28.90;14.77;;;;;;;21.27;64.57;101393.97;4835629;29;20114;-62
2021/08/04 08:37:31;;;;;;;34.08;14.20;;;;;;;21.72;61.60;101390.72;4825597;29;20874;-62
2021/08/04 08:39:57;;;;;;;36.10;14.00;;;;;;;22.04;60.25;101397.03;4835676;29;20144;-62
2021/08/04 08:42:24;;;;;;;29.27;14.15;;;;;;;22.21;58.38;101396.59;4827163;29;20169;-63
2021/08/04 08:44:50;;;;;;;31.52;13.70;;;;;;;22.47;57.93;101391.19;4835119;29;20157;-63
2021/08/04 08:47:16;;;;;;;30.58;13.52;;;;;;;22.98;58.03;101386.03;4828614;29;20566;-63
2021/08/04 08:49:44;;;;;;;34.17;13.23;;;;;;;23.47;55.39;101389.81;4844683;29;20862;-62
2021/08/04 08:52:12;;;;;;;24.38;11.77;;;;;;;23.90;54.52;101385.56;4843919;29;20152;-63
2021/08/04 08:54:38;;;;;;;22.27;10.18;;;;;;;23.38;55.36;101380.41;4824510;29;20859;-63
2021/08/04 08:57:05;;;;;;;25.38;12.50;;;;;;;23.19;55.34;101379.53;4817090;29;20446;-62
2021/08/04 08:59:32;;;;;;;24.75;10.50;;;;;;;23.27;55.67;101377.41;4810262;29;20058;-63
2021/08/04 09:01:58;;;;;;;25.42;10.88;;;;;;;23.43;54.78;101386.75;4811960;29;20152;-63
2021/08/04 09:04:25;;;;;;;24.98;10.23;;;;;;;23.56;54.61;101379.66;4804370;29;20050;-63
2021/08/04 09:06:57;;;;;;;22.10;10.10;;;;;;;23.66;54.51;101378.13;4816536;29;20263;-63
2021/08/04 09:09:29;;;;;;;18.05;9.48;;;;;;;23.76;53.54;101369.59;4809101;29;20194;-63
2021/08/04 09:11:57;;;;;;;17.42;9.07;;;;;;;23.94;52.32;101374.19;4821602;29;20054;-63
2021/08/04 09:14:29;;;;;;;20.90;8.82;;;;;;;24.11;53.74;101373.59;4828232;29;20558;-63
2021/08/04 09:17:15;;;;;;;23.42;11.43;;;;;;;24.33;53.53;101372.09;4839577;29;20067;-63
2021/08/04 09:19:45;;;;;;;19.52;10.38;;;;;;;24.37;51.52;101365.25;4831332;29;20878;-62
2021/08/04 09:22:20;;;;;;;26.83;10.00;;;;;;;24.51;50.07;101373.97;4830322;29;20247;-62
2021/08/04 09:25:03;;;;;;;22.48;11.68;;;;;;;24.63;49.86;101374.03;4833584;29;20066;-63
2021/08/04 09:27:50;;;;;;;22.35;10.57;;;;;;;24.91;50.51;101373.41;4827122;29;20054;-63
2021/08/04 09:30:29;;;;;;;20.90;9.50;;;;;;;25.76;47.04;101361.56;4828690;29;20153;-63
2021/08/04 09:33:11;;;;;;;23.33;10.00;;;;;;;26.14;45.99;101364.81;4825652;29;20149;-62
2021/08/04 09:35:42;;;;;;;18.38;9.50;;;;;;;26.63;44.50;101366.06;4834155;29;20145;-63
2021/08/04 09:38:09;;;;;;;20.23;8.60;;;;;;;26.81;43.68;101361.53;4827680;29;20125;-63
2021/08/04 09:40:35;;;;;;;17.30;8.80;;;;;;;26.64;43.42;101366.91;4833589;29;20148;-63
2021/08/04 09:43:02;;;;;;;17.27;9.35;;;;;;;26.23;43.93;101360.69;4823523;29;20168;-63
2021/08/04 09:45:51;;;;;;;23.05;9.55;;;;;;;26.02;43.70;101356.75;4829705;29;20177;-63
2021/08/04 09:48:24;;;;;;;17.02;8.40;;;;;;;25.99;44.37;101352.69;4826684;29;20152;-63
2021/08/04 09:51:00;;;;;;;19.90;8.50;;;;;;;26.15;43.36;101359.19;4833510;29;20060;-63
2021/08/04 09:53:31;;;;;;;18.35;9.00;;;;;;;26.29;43.45;101357.06;4822319;29;20096;-63
2021/08/04 09:56:15;;;;;;;20.15;9.30;;;;;;;26.46;42.66;101357.09;4815074;29;20068;-63
2021/08/04 09:58:45;;;;;;;16.85;9.10;;;;;;;27.13;41.92;101361.84;4805181;29;20145;-63
2021/08/04 10:01:14;;;;;;;19.23;9.00;;;;;;;27.34;40.68;101359.50;4814501;29;20153;-63
2021/08/04 10:04:09;;;;;;;19.27;7.82;;;;;;;27.70;40.15;101351.97;4815052;29;20062;-63
2021/08/04 10:06:38;;;;;;;21.95;8.70;;;;;;;27.64;38.14;101353.75;4814562;29;20161;-64
2021/08/04 10:09:09;;;;;;;22.63;8.32;;;;;;;27.38;39.48;101353.38;4816167;29;20459;-64
2021/08/04 10:11:43;;;;;;;14.65;7.65;;;;;;;27.47;41.26;101359.16;4808514;29;20053;-64
2021/08/04 10:14:15;;;;;;;13.23;5.78;;;;;;;27.63;41.98;101346.72;4830104;29;20149;-64
2021/08/04 10:16:43;;;;;;;11.90;5.72;;;;;;;27.86;40.33;101356.47;4834864;29;20070;-64
2021/08/04 10:19:10;;;;;;;;;;;;;;;27.71;37.34;101354.38;4834009;29;20066;-64
2021/08/04 10:21:40;;;;;;;13.55;6.43;;;;;;;27.93;39.69;101353.63;4825094;29;19929;-63
2021/08/04 10:24:06;;;;;;;12.93;6.22;;;;;;;28.35;38.88;101356.56;4831683;29;20153;-63
2021/08/04 10:26:35;;;;;;;13.23;5.95;;;;;;;28.48;37.28;101351.84;4821723;29;20171;-62
2021/08/04 10:29:04;;;;;;;15.05;6.53;;;;;;;28.64;36.74;101348.28;4833169;29;20050;-62
2021/08/04 10:31:32;;;;;;;15.32;6.80;;;;;;;28.85;38.22;101351.16;4831692;29;20595;-63
2021/08/04 10:33:58;;;;;;;;;;;;;;;28.83;37.41;101347.91;4827382;29;20066;-63
2021/08/04 10:36:34;;;;;;;23.60;8.00;;;;;;;28.86;36.41;101350.09;4833407;29;20024;-63
2021/08/04 10:39:11;;;;;;;18.42;7.93;;;;;;;29.11;37.15;101346.78;4826695;29;20065;-62
2021/08/04 10:41:43;;;;;;;14.52;7.57;;;;;;;29.19;37.54;101343.66;4832411;29;20097;-63
2021/08/04 10:44:22;;;;;;;15.27;7.00;;;;;;;29.09;38.25;101333.56;4826703;29;20632;-63
2021/08/04 10:46:49;;;;;;;16.60;8.38;;;;;;;28.99;39.42;101331.59;4833672;29;20077;-63
2021/08/04 10:49:18;;;;;;;18.33;7.28;;;;;;;28.82;39.65;101340.91;4822052;29;20521;-62
2021/08/04 10:51:54;;;;;;;19.98;9.05;;;;;;;28.86;37.98;101337.41;4830889;29;20140;-64
2021/08/04 10:54:24;;;;;;;17.00;8.30;;;;;;;29.11;37.90;101338.69;4815138;29;20107;-63
2021/08/04 10:56:50;;;;;;;20.42;8.70;;;;;;;29.04;38.48;101336.22;4815684;29;20094;-63
2021/08/04 10:59:27;;;;;;;20.50;9.30;;;;;;;28.12;39.69;101336.06;4815414;29;20098;-63
2021/08/04 11:02:15;;;;;;;16.30;8.73;;;;;;;27.58;41.64;101336.69;4808098;29;20169;-62
2021/08/04 11:04:44;;;;;;;19.92;9.52;;;;;;;27.63;41.31;101337.84;4811125;29;20298;-63
2021/08/04 11:07:12;;;;;;;17.23;9.00;;;;;;;27.74;40.84;101329.66;4808975;29;20149;-63
2021/08/04 11:09:41;;;;;;;19.88;9.07;;;;;;;27.76;39.73;101332.09;4815456;29;20138;-63
2021/08/04 11:12:17;;;;;;;15.07;8.13;;;;;;;27.91;40.35;101329.63;4816013;29;20157;-64
2021/08/04 11:14:53;;;;;;;19.23;8.90;;;;;;;28.03;39.83;101329.50;4833323;29;20122;-64
2021/08/04 11:17:29;;;;;;;14.82;7.22;;;;;;;28.25;40.81;101326.00;4831305;29;20069;-63
2021/08/04 11:22:31;;;;;;;20.00;10.00;;;;;;;27.52;40.63;101316.16;4822814;29;20164;-61
2021/08/04 11:25:10;;;;;;;17.83;9.45;;;;;;;27.61;40.63;101319.22;4834011;29;20169;-62
2021/08/04 11:27:43;;;;;;;39.72;20.08;;;;;;;27.90;41.13;101319.09;4829448;29;20153;-63